Time;durP1;ratioP1;P1;durP2;ratioP2;P2;SDS_P1;SDS_P2;PMS_P1;PMS_P2;Temp;Humidity;BMP_temperature;BMP_pressure;BME280_temperature;BME280_humidity;BME280_pressure;Samples;Min_cycle;Max_cycle;Signal;HPM_P1;HPM_P2
2023/04/08 00:00:15;;;;;;;;;;;;;;;12.84;nan;102180.16;5021555;28;19920;-86
2023/04/08 00:02:41;;;;;;;;;;;;;;;12.83;nan;102187.41;5020048;28;19971;-86
2023/04/08 00:05:07;;;;;;;;;;;;;;;12.80;nan;102198.63;5019623;28;19932;-86
2023/04/08 00:07:32;;;;;;;;;;;;;;;12.78;nan;102183.78;5022229;28;19925;-86
2023/04/08 00:09:58;;;;;;;;;;;;;;;12.77;nan;102188.34;5020042;28;19925;-86
2023/04/08 00:12:23;;;;;;;;;;;;;;;12.77;nan;102193.72;5019558;28;20054;-86
2023/04/08 00:14:48;;;;;;;;;;;;;;;12.76;nan;102200.16;5020650;28;19940;-86
2023/04/08 00:17:14;;;;;;;;;;;;;;;12.76;nan;102200.16;5019749;28;19960;-86
2023/04/08 00:19:39;;;;;;;;;;;;;;;12.77;nan;102201.78;5017623;28;19953;-86
2023/04/08 00:22:05;;;;;;;;;;;;;;;12.76;nan;102202.84;5021247;28;19917;-86
2023/04/08 00:24:31;;;;;;;;;;;;;;;12.79;nan;102202.38;5025311;28;19948;-86
2023/04/08 00:26:57;;;;;;;;;;;;;;;12.81;nan;102207.53;5021803;28;20379;-87
2023/04/08 00:29:24;;;;;;;;;;;;;;;12.81;nan;102211.03;5020237;28;20386;-86
2023/04/08 00:31:50;;;;;;;;;;;;;;;12.83;nan;102213.50;5019740;28;20444;-86
2023/04/08 00:34:16;;;;;;;;;;;;;;;12.79;nan;102205.06;5020454;28;20003;-86
2023/04/08 00:36:41;;;;;;;;;;;;;;;12.78;nan;102205.28;5020742;28;19916;-86
2023/04/08 00:39:06;;;;;;;;;;;;;;;12.78;nan;102210.66;5020570;28;19979;-86
2023/04/08 00:41:35;;;;;;;;;;;;;;;12.78;nan;102207.97;5020925;28;20292;-86
2023/04/08 00:44:00;;;;;;;;;;;;;;;12.79;nan;102205.06;5019938;28;19951;-86
2023/04/08 00:46:26;;;;;;;;;;;;;;;12.80;nan;102211.25;5019980;28;19961;-86
2023/04/08 00:48:51;;;;;;;;;;;;;;;12.79;nan;102215.81;5015949;28;19921;-86
2023/04/08 00:51:17;;;;;;;;;;;;;;;12.78;nan;102216.06;5020501;28;19925;-86
2023/04/08 00:53:43;;;;;;;;;;;;;;;12.77;nan;102217.09;5019481;28;20638;-87
2023/04/08 00:56:08;;;;;;;;;;;;;;;12.76;nan;102210.91;5018438;28;19947;-86
2023/04/08 00:58:33;;;;;;;;;;;;;;;12.76;nan;102212.78;5020272;28;20034;-86
2023/04/08 01:01:02;;;;;;;;;;;;;;;12.77;nan;102220.59;4996823;28;20027;-86
2023/04/08 01:03:51;;;;;;;;;;;;;;;12.77;nan;102217.91;5015640;28;20382;-86
2023/04/08 01:06:16;;;;;;;;;;;;;;;12.73;nan;102213.19;5018841;28;19922;-86
2023/04/08 01:08:42;;;;;;;;;;;;;;;12.68;nan;102211.19;5018326;28;20063;-87
2023/04/08 01:11:09;;;;;;;;;;;;;;;12.69;nan;102207.47;5017112;28;19931;-86
2023/04/08 01:13:36;;;;;;;;;;;;;;;12.67;nan;102201.50;5019144;28;19936;-86
2023/04/08 01:16:01;;;;;;;;;;;;;;;12.69;nan;102202.06;5019001;28;19925;-87
2023/04/08 01:18:28;;;;;;;;;;;;;;;12.70;nan;102198.34;5017715;28;19924;-86
2023/04/08 01:20:54;;;;;;;;;;;;;;;12.71;nan;102200.81;5020065;28;19921;-87
2023/04/08 01:23:24;;;;;;;;;;;;;;;12.73;nan;102205.94;5019599;28;19921;-86
2023/04/08 01:25:50;;;;;;;;;;;;;;;12.71;nan;102214.25;5019368;28;19917;-87
2023/04/08 01:28:17;;;;;;;;;;;;;;;12.69;nan;102220.91;5020583;28;19955;-86
2023/04/08 01:30:43;;;;;;;;;;;;;;;12.66;nan;102219.50;5022410;28;19929;-86
2023/04/08 01:33:11;;;;;;;;;;;;;;;12.64;nan;102218.91;5029640;28;19927;-86
2023/04/08 01:35:37;;;;;;;;;;;;;;;12.63;nan;102211.06;5027355;28;19917;-87
2023/04/08 01:38:05;;;;;;;;;;;;;;;12.62;nan;102210.25;5029174;28;19924;-87
2023/04/08 01:40:31;;;;;;;;;;;;;;;12.62;nan;102215.63;5027261;28;19925;-87
2023/04/08 01:42:57;;;;;;;;;;;;;;;12.62;nan;102220.19;5026343;28;19924;-87
2023/04/08 01:45:23;;;;;;;;;;;;;;;12.64;nan;102218.06;5028759;28;19964;-87
2023/04/08 01:47:49;;;;;;;;;;;;;;;12.62;nan;102221.00;5027613;28;19959;-87
2023/04/08 01:50:15;;;;;;;;;;;;;;;12.61;nan;102221.22;5028575;28;19921;-87
2023/04/08 01:52:45;;;;;;;;;;;;;;;12.61;nan;102221.22;5026551;28;20396;-86
2023/04/08 01:55:15;;;;;;;;;;;;;;;12.64;nan;102218.06;5028706;28;19917;-87
2023/04/08 01:57:43;;;;;;;;;;;;;;;12.67;nan;102228.38;5025007;28;20016;-86
2023/04/08 02:00:10;;;;;;;;;;;;;;;12.70;nan;102234.13;5025215;28;19971;-86
2023/04/08 02:02:36;;;;;;;;;;;;;;;12.73;nan;102240.91;5023462;28;20608;-86
2023/04/08 02:05:02;;;;;;;;;;;;;;;12.71;nan;102232.25;5026906;28;19971;-86
2023/04/08 02:07:27;;;;;;;;;;;;;;;12.70;nan;102230.59;5009920;28;19921;-86
2023/04/08 02:09:53;;;;;;;;;;;;;;;12.70;nan;102225.22;5022545;28;20388;-86
2023/04/08 02:12:18;;;;;;;;;;;;;;;12.67;nan;102234.56;5023727;28;19928;-87
2023/04/08 02:14:44;;;;;;;;;;;;;;;12.67;nan;102239.13;5024000;28;20020;-87
2023/04/08 02:17:16;;;;;;;;;;;;;;;12.64;nan;102250.34;5027308;28;19917;-87
2023/04/08 02:20:01;;;;;;;;;;;;;;;12.64;nan;102242.28;5023007;28;19924;-87
2023/04/08 02:22:32;;;;;;;;;;;;;;;12.60;nan;102249.97;5022387;28;19968;-87
2023/04/08 02:24:58;;;;;;;;;;;;;;;12.60;nan;102246.47;5022629;28;20107;-86
2023/04/08 02:27:25;;;;;;;;;;;;;;;12.61;nan;102245.44;5023230;28;19917;-87
2023/04/08 02:29:54;;;;;;;;;;;;;;;12.62;nan;102247.06;5021223;28;19926;-86
2023/04/08 02:32:20;;;;;;;;;;;;;;;12.63;nan;102246.84;5023740;28;19925;-86
2023/04/08 02:34:46;;;;;;;;;;;;;;;12.64;nan;102255.72;5019694;28;19920;-87
2023/04/08 02:37:11;;;;;;;;;;;;;;;12.65;nan;102260.06;5026456;28;19917;-86
2023/04/08 02:39:37;;;;;;;;;;;;;;;12.65;nan;102258.19;5020155;28;19924;-87
2023/04/08 02:42:03;;;;;;;;;;;;;;;12.67;nan;102256.09;5022096;28;19925;-87
2023/04/08 02:44:28;;;;;;;;;;;;;;;12.70;nan;102254.81;5022184;28;20137;-87
2023/04/08 02:46:53;;;;;;;;;;;;;;;12.72;nan;102255.41;5001242;28;20275;-86
2023/04/08 02:49:19;;;;;;;;;;;;;;;12.73;nan;102258.91;5028179;28;20397;-86
2023/04/08 02:51:44;;;;;;;;;;;;;;;12.73;nan;102261.59;5024761;28;19917;-86
2023/04/08 02:54:10;;;;;;;;;;;;;;;12.73;nan;102265.13;5023773;28;19948;-87
2023/04/08 02:56:35;;;;;;;;;;;;;;;12.75;nan;102257.66;5019510;28;19924;-87
2023/04/08 02:59:00;;;;;;;;;;;;;;;12.75;nan;102256.81;5019274;28;19921;-86
2023/04/08 03:01:26;;;;;;;;;;;;;;;12.73;nan;102253.53;5023652;28;20077;-87
2023/04/08 03:03:51;;;;;;;;;;;;;;;12.70;nan;102255.63;5022544;28;19950;-86
2023/04/08 03:06:17;;;;;;;;;;;;;;;12.70;nan;102269.09;5024944;28;19959;-86
2023/04/08 03:08:42;;;;;;;;;;;;;;;12.70;nan;102268.25;5005803;28;19924;-87
2023/04/08 03:11:08;;;;;;;;;;;;;;;12.70;nan;102270.94;5022382;28;19920;-86
2023/04/08 03:13:34;;;;;;;;;;;;;;;12.71;nan;102278.78;5020008;28;19934;-87
2023/04/08 03:16:00;;;;;;;;;;;;;;;12.74;nan;102282.06;5028663;28;19928;-86
2023/04/08 03:18:25;;;;;;;;;;;;;;;12.73;nan;102277.75;5018733;28;20064;-86
2023/04/08 03:20:50;;;;;;;;;;;;;;;12.72;nan;102271.53;5022260;28;20165;-87
2023/04/08 03:23:16;;;;;;;;;;;;;;;12.74;nan;102274.81;5023971;28;20175;-86
2023/04/08 03:25:41;;;;;;;;;;;;;;;12.75;nan;102281.88;5022602;28;20016;-87
2023/04/08 03:28:06;;;;;;;;;;;;;;;12.77;nan;102277.09;5026837;28;20024;-87
2023/04/08 03:30:32;;;;;;;;;;;;;;;12.74;nan;102269.44;5024852;28;19936;-86
2023/04/08 03:32:57;;;;;;;;;;;;;;;12.76;nan;102269.25;5024445;28;19921;-87
2023/04/08 03:35:22;;;;;;;;;;;;;;;12.78;nan;102273.34;5022440;28;19921;-87
2023/04/08 03:37:48;;;;;;;;;;;;;;;12.80;nan;102268.56;5022213;28;19916;-87
2023/04/08 03:40:13;;;;;;;;;;;;;;;12.80;nan;102257.81;5022342;28;19917;-86
2023/04/08 03:42:39;;;;;;;;;;;;;;;12.80;nan;102270.44;5023197;28;19968;-87
2023/04/08 03:45:05;;;;;;;;;;;;;;;12.78;nan;102265.28;5019819;28;19921;-86
2023/04/08 03:47:30;;;;;;;;;;;;;;;12.79;nan;102277.69;5020503;28;20765;-87
2023/04/08 03:49:55;;;;;;;;;;;;;;;12.81;nan;102285.53;5023625;28;20598;-87
2023/04/08 03:52:21;;;;;;;;;;;;;;;12.81;nan;102291.72;5023163;28;19963;-86
2023/04/08 03:54:46;;;;;;;;;;;;;;;12.82;nan;102292.53;5022492;28;19917;-87
2023/04/08 03:57:12;;;;;;;;;;;;;;;12.85;nan;102295.59;5026883;28;19973;-86
2023/04/08 03:59:39;;;;;;;;;;;;;;;12.86;nan;102296.41;5022560;28;20299;-87
2023/04/08 04:02:05;;;;;;;;;;;;;;;12.85;nan;102298.28;5026220;28;19928;-87
2023/04/08 04:04:30;;;;;;;;;;;;;;;12.85;nan;102295.59;5021907;28;19924;-86
2023/04/08 04:06:55;;;;;;;;;;;;;;;12.85;nan;102303.66;5005215;28;19925;-87
2023/04/08 04:09:21;;;;;;;;;;;;;;;12.86;nan;102301.78;5003730;28;20424;-86
2023/04/08 04:11:46;;;;;;;;;;;;;;;12.86;nan;102301.78;5028041;28;19917;-86
2023/04/08 04:14:12;;;;;;;;;;;;;;;12.86;nan;102305.31;5028945;28;19977;-87
2023/04/08 04:16:40;;;;;;;;;;;;;;;12.88;nan;102305.09;5021296;28;20004;-87
2023/04/08 04:19:06;;;;;;;;;;;;;;;12.89;nan;102312.09;5026278;28;20372;-87
2023/04/08 04:21:31;;;;;;;;;;;;;;;12.89;nan;102317.47;5027521;28;20015;-87
2023/04/08 04:23:56;;;;;;;;;;;;;;;12.87;nan;102317.72;5025060;28;20275;-86
2023/04/08 04:26:22;;;;;;;;;;;;;;;12.85;nan;102317.13;5022654;28;20196;-86
2023/04/08 04:28:47;;;;;;;;;;;;;;;12.84;nan;102328.09;5021598;28;20612;-87
2023/04/08 04:31:20;;;;;;;;;;;;;;;12.84;nan;102330.78;5020770;28;19936;-87
2023/04/08 04:33:46;;;;;;;;;;;;;;;12.85;nan;102324.38;5020721;28;19963;-87
2023/04/08 04:36:11;;;;;;;;;;;;;;;12.86;nan;102326.00;5020969;28;19917;-86
2023/04/08 04:38:37;;;;;;;;;;;;;;;12.87;nan;102320.41;5025370;28;20146;-88
2023/04/08 04:41:05;;;;;;;;;;;;;;;12.89;nan;102333.63;5018645;28;19925;-86
2023/04/08 04:43:31;;;;;;;;;;;;;;;12.89;nan;102337.13;5023969;28;19925;-86
2023/04/08 04:45:56;;;;;;;;;;;;;;;12.90;nan;102346.03;5019919;28;19932;-87
2023/04/08 04:48:22;;;;;;;;;;;;;;;12.93;nan;102337.53;5019857;28;20437;-86
2023/04/08 04:50:57;;;;;;;;;;;;;;;12.94;nan;102347.25;5021681;28;19929;-86
2023/04/08 04:53:22;;;;;;;;;;;;;;;12.93;nan;102343.72;5023170;28;19979;-86
2023/04/08 04:55:49;;;;;;;;;;;;;;;12.94;nan;102344.56;5028645;28;20394;-86
2023/04/08 04:58:15;;;;;;;;;;;;;;;12.95;nan;102340.81;5016925;28;20345;-85
2023/04/08 05:00:40;;;;;;;;;;;;;;;12.97;nan;102342.22;5021486;28;19917;-86
2023/04/08 05:03:05;;;;;;;;;;;;;;;12.96;nan;102351.34;5029651;28;19917;-86
2023/04/08 05:05:31;;;;;;;;;;;;;;;12.96;nan;102353.22;5034015;28;19952;-87
2023/04/08 05:07:56;;;;;;;;;;;;;;;12.96;nan;102356.72;5023133;28;19932;-87
2023/04/08 05:10:21;;;;;;;;;;;;;;;12.98;nan;102361.88;5026346;28;19933;-86
2023/04/08 05:12:47;;;;;;;;;;;;;;;12.98;nan;102368.09;5025180;28;20494;-86
2023/04/08 05:15:12;;;;;;;;;;;;;;;12.99;nan;102363.53;5003472;28;20376;-86
2023/04/08 05:17:40;;;;;;;;;;;;;;;12.99;nan;102353.59;5028693;28;20276;-87
2023/04/08 05:20:05;;;;;;;;;;;;;;;13.02;nan;102363.06;5023704;28;20378;-86
2023/04/08 05:22:31;;;;;;;;;;;;;;;13.04;nan;102360.16;5023793;28;19924;-86
2023/04/08 05:24:56;;;;;;;;;;;;;;;13.05;nan;102361.78;5029116;28;19924;-86
2023/04/08 05:27:21;;;;;;;;;;;;;;;13.05;nan;102367.19;5028458;28;19917;-86
2023/04/08 05:29:47;;;;;;;;;;;;;;;13.05;nan;102365.31;5027210;28;19921;-87
2023/04/08 05:32:12;;;;;;;;;;;;;;;13.07;nan;102365.06;5026977;28;19917;-87
2023/04/08 05:34:37;;;;;;;;;;;;;;;13.07;nan;102360.53;5026705;28;19921;-87
2023/04/08 05:37:03;;;;;;;;;;;;;;;13.08;nan;102351.41;5026151;28;19956;-87
2023/04/08 05:39:28;;;;;;;;;;;;;;;13.10;nan;102361.94;5028111;28;20367;-86
2023/04/08 05:41:54;;;;;;;;;;;;;;;13.11;nan;102369.00;5008201;28;19917;-86
2023/04/08 05:44:19;;;;;;;;;;;;;;;13.12;nan;102368.75;5032437;28;19925;-87
2023/04/08 05:46:44;;;;;;;;;;;;;;;13.14;nan;102372.03;5024237;28;19984;-87
2023/04/08 05:49:13;;;;;;;;;;;;;;;13.16;nan;102380.72;5025950;28;19921;-86
2023/04/08 05:51:38;;;;;;;;;;;;;;;13.19;nan;102384.84;5025908;28;20256;-87
2023/04/08 05:54:04;;;;;;;;;;;;;;;13.22;nan;102385.22;5025716;28;19921;-86
2023/04/08 05:56:31;;;;;;;;;;;;;;;13.25;nan;102389.31;5026143;28;19917;-87
2023/04/08 05:58:56;;;;;;;;;;;;;;;13.27;nan;102389.91;5023762;28;20619;-86
2023/04/08 06:01:22;;;;;;;;;;;;;;;13.29;nan;102398.63;5026142;28;19927;-86
2023/04/08 06:03:47;;;;;;;;;;;;;;;13.30;nan;102393.00;5023532;28;19928;-86
2023/04/08 06:06:13;;;;;;;;;;;;;;;13.31;nan;102404.59;5025828;28;19917;-87
2023/04/08 06:08:39;;;;;;;;;;;;;;;13.33;nan;102407.06;5023046;28;19917;-86
2023/04/08 06:11:04;;;;;;;;;;;;;;;13.33;nan;102407.88;5029752;28;19967;-86
2023/04/08 06:13:30;;;;;;;;;;;;;;;13.33;nan;102405.19;5024607;28;19960;-87
2023/04/08 06:15:55;;;;;;;;;;;;;;;13.34;nan;102406.81;5023373;28;20229;-86
2023/04/08 06:18:21;;;;;;;;;;;;;;;13.36;nan;102410.09;5020406;28;20018;-87
2023/04/08 06:20:46;;;;;;;;;;;;;;;13.39;nan;102417.72;5021819;28;19944;-86
2023/04/08 06:23:12;;;;;;;;;;;;;;;13.43;nan;102420.78;5023227;28;19916;-86
2023/04/08 06:25:37;;;;;;;;;;;;;;;13.46;nan;102423.84;5021272;28;19972;-87
2023/04/08 06:28:03;;;;;;;;;;;;;;;13.51;nan;102426.69;5025100;28;19921;-86
2023/04/08 06:30:28;;;;;;;;;;;;;;;13.54;nan;102436.19;5022685;28;19943;-87
2023/04/08 06:32:55;;;;;;;;;;;;;;;13.54;nan;102434.31;5020972;28;20531;-87
2023/04/08 06:35:21;;;;;;;;;;;;;;;13.53;nan;102435.38;5027457;28;20004;-86
2023/04/08 06:37:46;;;;;;;;;;;;;;;13.53;nan;102431.84;5026287;28;19952;-86
2023/04/08 06:40:11;;;;;;;;;;;;;;;13.55;nan;102432.44;5002390;28;19925;-86
2023/04/08 06:42:37;;;;;;;;;;;;;;;13.57;nan;102441.94;5020341;28;19921;-87
2023/04/08 06:45:06;;;;;;;;;;;;;;;13.61;nan;102442.31;5022057;28;19921;-87
2023/04/08 06:47:31;;;;;;;;;;;;;;;13.63;nan;102444.75;5019354;28;19921;-86
2023/04/08 06:49:57;;;;;;;;;;;;;;;13.65;nan;102440.00;5016858;28;20004;-86
2023/04/08 06:52:22;;;;;;;;;;;;;;;13.66;nan;102449.72;5014261;28;19933;-86
2023/04/08 06:54:50;;;;;;;;;;;;;;;13.68;nan;102450.31;5014378;28;19931;-86
2023/04/08 06:57:15;;;;;;;;;;;;;;;13.68;nan;102461.09;5014364;28;20730;-87
2023/04/08 06:59:40;;;;;;;;;;;;;;;13.70;nan;102464.38;5019139;28;19921;-86
2023/04/08 07:02:06;;;;;;;;;;;;;;;13.72;nan;102462.28;5014639;28;19931;-87
2023/04/08 07:04:31;;;;;;;;;;;;;;;13.74;nan;102465.56;4990051;28;19925;-85
2023/04/08 07:06:57;;;;;;;;;;;;;;;13.76;nan;102474.22;5024116;28;19964;-86
2023/04/08 07:09:22;;;;;;;;;;;;;;;13.77;nan;102473.19;5015576;28;19932;-86
2023/04/08 07:11:48;;;;;;;;;;;;;;;13.76;nan;102472.38;5016670;28;19925;-86
2023/04/08 07:14:33;;;;;;;;;;;;;;;13.80;nan;102472.72;5014772;28;19932;-87
2023/04/08 07:17:21;;;;;;;;;;;;;;;13.82;nan;102479.56;4962079;28;20431;-86
2023/04/08 07:19:46;;;;;;;;;;;;;;;13.84;nan;102480.16;5011216;28;20658;-87
2023/04/08 07:22:12;;;;;;;;;;;;;;;13.88;nan;102480.50;5017703;28;19924;-86
2023/04/08 07:24:37;;;;;;;;;;;;;;;13.94;nan;102487.66;5012518;28;19933;-87
2023/04/08 07:27:02;;;;;;;;;;;;;;;13.99;nan;102485.09;5016071;28;19979;-86
2023/04/08 07:29:28;;;;;;;;;;;;;;;14.03;nan;102489.00;5023054;28;20351;-86
2023/04/08 07:31:54;;;;;;;;;;;;;;;14.06;nan;102483.16;5017667;28;19971;-86
2023/04/08 07:34:20;;;;;;;;;;;;;;;14.11;nan;102485.97;4997016;28;19979;-86
2023/04/08 07:36:45;;;;;;;;;;;;;;;14.17;nan;102490.44;5013140;28;19921;-88
2023/04/08 07:39:10;;;;;;;;;;;;;;;14.23;nan;102490.59;5012512;28;20148;-87
2023/04/08 07:41:36;;;;;;;;;;;;;;;14.28;nan;102490.72;5012539;28;20185;-87
2023/04/08 07:44:01;;;;;;;;;;;;;;;14.33;nan;102486.28;5015299;28;20330;-86
2023/04/08 07:46:26;;;;;;;;;;;;;;;14.38;nan;102493.69;5016531;28;19924;-87
2023/04/08 07:48:52;;;;;;;;;;;;;;;14.43;nan;102505.44;5017277;28;20606;-86
2023/04/08 07:51:17;;;;;;;;;;;;;;;14.48;nan;102502.06;5012424;28;19933;-86
2023/04/08 07:53:43;;;;;;;;;;;;;;;14.56;nan;102506.31;5018558;28;19925;-85
2023/04/08 07:56:12;;;;;;;;;;;;;;;14.61;nan;102507.25;5016486;28;21054;-86
2023/04/08 07:58:39;;;;;;;;;;;;;;;14.66;nan;102515.47;5012981;28;19931;-87
2023/04/08 08:01:13;;;;;;;;;;;;;;;14.67;nan;102521.69;5012123;28;20288;-85
2023/04/08 08:03:38;;;;;;;;;;;;;;;14.70;nan;102513.94;5018806;28;20528;-86
2023/04/08 08:06:03;;;;;;;;;;;;;;;14.74;nan;102517.84;5013134;28;19921;-87
2023/04/08 08:08:29;;;;;;;;;;;;;;;14.79;nan;102515.25;5010170;28;20304;-85
2023/04/08 08:10:56;;;;;;;;;;;;;;;14.87;nan;102524.03;5010905;28;19921;-87
2023/04/08 08:13:22;;;;;;;;;;;;;;;14.95;nan;102531.81;5012744;28;20165;-86
2023/04/08 08:15:51;;;;;;;;;;;;;;;14.97;nan;102532.41;5009586;28;19925;-85
2023/04/08 08:18:17;;;;;;;;;;;;;;;14.99;nan;102535.69;5010844;28;20168;-85
2023/04/08 08:20:42;;;;;;;;;;;;;;;14.96;nan;102531.56;5010343;28;19931;-85
2023/04/08 08:23:08;;;;;;;;;;;;;;;14.96;nan;102531.56;5014295;28;20313;-86
2023/04/08 08:25:33;;;;;;;;;;;;;;;14.97;nan;102544.00;5019535;28;19925;-85
2023/04/08 08:27:59;;;;;;;;;;;;;;;14.98;nan;102539.44;5019412;28;19960;-86
2023/04/08 08:30:25;;;;;;;;;;;;;;;14.97;nan;102538.63;5013445;28;19936;-85
2023/04/08 08:32:50;;;;;;;;;;;;;;;14.98;nan;102536.72;5008711;28;20064;-85
2023/04/08 08:35:16;;;;;;;;;;;;;;;15.01;nan;102538.97;5011389;28;20137;-85
2023/04/08 08:37:41;;;;;;;;;;;;;;;15.04;nan;102539.31;5011234;28;20607;-86
2023/04/08 08:40:24;;;;;;;;;;;;;;;15.04;nan;102543.88;5018844;28;20299;-86
2023/04/08 08:42:51;;;;;;;;;;;;;;;15.04;nan;102546.59;5019052;28;19912;-85
2023/04/08 08:45:18;;;;;;;;;;;;;;;15.05;nan;102543.66;5017045;28;19925;-86
2023/04/08 08:47:45;;;;;;;;;;;;;;;15.06;nan;102544.47;5021010;28;20012;-85
2023/04/08 08:50:11;;;;;;;;;;;;;;;15.08;nan;102545.06;5021411;28;19937;-87
2023/04/08 08:52:38;;;;;;;;;;;;;;;15.08;nan;102550.47;5018475;28;19947;-87
2023/04/08 08:55:04;;;;;;;;;;;;;;;15.08;nan;102548.59;5013934;28;19925;-86
2023/04/08 08:57:30;;;;;;;;;;;;;;;15.09;nan;102557.53;5016789;28;20295;-85
2023/04/08 08:59:55;;;;;;;;;;;;;;;15.11;nan;102553.53;5014091;28;20411;-86
2023/04/08 09:02:28;;;;;;;;;;;;;;;15.18;nan;102561.50;5005037;28;20023;-85
2023/04/08 09:05:01;;;;;;;;;;;;;;;15.25;nan;102561.38;5013981;28;19922;-86
2023/04/08 09:07:31;;;;;;;;;;;;;;;15.31;nan;102555.06;5014830;28;19938;-86
2023/04/08 09:09:57;;;;;;;;;;;;;;;15.39;nan;102563.59;5014027;28;21520;-85
2023/04/08 09:12:23;;;;;;;;;;;;;;;15.52;nan;102572.53;5011390;28;19932;-87
2023/04/08 09:14:49;;;;;;;;;;;;;;;15.60;nan;102564.09;5015576;28;19951;-85
2023/04/08 09:17:16;;;;;;;;;;;;;;;15.70;nan;102567.84;5013443;28;19925;-86
2023/04/08 09:20:00;;;;;;;;;;;;;;;15.83;nan;102569.47;5012820;28;19921;-87
2023/04/08 09:22:25;;;;;;;;;;;;;;;15.94;nan;102571.28;5006803;28;19928;-86
2023/04/08 09:24:51;;;;;;;;;;;;;;;16.05;nan;102574.22;5012600;28;19976;-85
2023/04/08 09:27:32;;;;;;;;;;;;;;;16.09;nan;102570.78;5019946;28;19963;-86
2023/04/08 09:30:11;;;;;;;;;;;;;;;16.13;nan;102576.53;5016412;28;19928;-86
2023/04/08 09:32:47;;;;;;;;;;;;;;;16.18;nan;102580.16;5001320;28;19924;-85
2023/04/08 09:35:12;;;;;;;;;;;;;;;16.25;nan;102582.72;5014585;28;19921;-86
2023/04/08 09:37:38;;;;;;;;;;;;;;;16.30;nan;102588.22;5012003;28;19929;-86
2023/04/08 09:40:03;;;;;;;;;;;;;;;16.35;nan;102577.53;5008940;28;21700;-87
2023/04/08 09:42:29;;;;;;;;;;;;;;;16.42;nan;102572.75;5012750;28;20394;-86
2023/04/08 09:44:55;;;;;;;;;;;;;;;16.52;nan;102577.56;5012394;28;20663;-87
2023/04/08 09:47:27;;;;;;;;;;;;;;;16.63;nan;102580.19;5016600;28;19925;-86
2023/04/08 09:49:56;;;;;;;;;;;;;;;16.79;nan;102583.19;5015442;28;19929;-86
2023/04/08 09:52:50;;;;;;;;;;;;;;;16.94;nan;102580.72;5016191;28;19920;-85
2023/04/08 09:55:20;;;;;;;;;;;;;;;17.10;nan;102577.19;5010585;28;19960;-86
2023/04/08 09:57:57;;;;;;;;;;;;;;;17.22;nan;102577.91;5016738;28;20301;-87
2023/04/08 10:00:33;;;;;;;;;;;;;;;17.35;nan;102578.66;5016588;28;20059;-85
2023/04/08 10:03:01;;;;;;;;;;;;;;;17.42;nan;102582.84;5011588;28;19924;-85
2023/04/08 10:05:30;;;;;;;;;;;;;;;17.45;nan;102585.03;5014641;28;19925;-85
2023/04/08 10:07:55;;;;;;;;;;;;;;;17.46;nan;102580.44;5007110;28;20433;-85
2023/04/08 10:10:21;;;;;;;;;;;;;;;17.50;nan;102585.09;5003931;28;19929;-85
2023/04/08 10:12:47;;;;;;;;;;;;;;;17.55;nan;102588.94;5009328;28;20493;-86
2023/04/08 10:15:24;;;;;;;;;;;;;;;17.59;nan;102588.19;5007744;28;19963;-87
2023/04/08 10:17:51;;;;;;;;;;;;;;;17.73;nan;102589.50;5014321;28;20011;-85
2023/04/08 10:20:37;;;;;;;;;;;;;;;17.82;nan;102581.75;5017989;28;19932;-85
2023/04/08 10:23:02;;;;;;;;;;;;;;;17.93;nan;102577.28;5019946;28;19956;-85
2023/04/08 10:25:31;;;;;;;;;;;;;;;18.00;nan;102588.75;5016374;28;20044;-87
2023/04/08 10:27:57;;;;;;;;;;;;;;;18.22;nan;102580.59;5023750;28;19917;-85
2023/04/08 10:30:30;;;;;;;;;;;;;;;18.48;nan;102579.78;5021302;28;19933;-86
2023/04/08 10:32:59;;;;;;;;;;;;;;;18.69;nan;102580.84;5021712;28;20047;-85
2023/04/08 10:35:31;;;;;;;;;;;;;;;18.84;nan;102572.78;5017210;28;20544;-85
2023/04/08 10:37:57;;;;;;;;;;;;;;;18.95;nan;102574.53;5015901;28;19925;-86
2023/04/08 10:40:22;;;;;;;;;;;;;;;19.02;nan;102577.00;5016794;28;20255;-85
2023/04/08 10:42:53;;;;;;;;;;;;;;;19.13;nan;102575.19;5010579;28;19920;-86
2023/04/08 10:45:19;;;;;;;;;;;;;;;19.36;nan;102580.22;5019747;28;19966;-86
2023/04/08 10:47:44;;;;;;;;;;;;;;;19.57;nan;102573.88;5014927;28;19925;-86
2023/04/08 10:50:14;;;;;;;;;;;;;;;19.72;nan;102569.59;5017781;28;20370;-85
2023/04/08 10:52:49;;;;;;;;;;;;;;;19.80;nan;102575.34;5024626;28;19929;-86
2023/04/08 10:55:15;;;;;;;;;;;;;;;19.81;nan;102576.97;5022973;28;19932;-86
2023/04/08 10:57:41;;;;;;;;;;;;;;;19.80;nan;102574.53;5029617;28;19917;-86
2023/04/08 11:00:10;;;;;;;;;;;;;;;19.80;nan;102577.25;5021917;28;19979;-86
2023/04/08 11:02:40;;;;;;;;;;;;;;;19.89;nan;102579.16;5024862;28;20362;-85
2023/04/08 11:05:09;;;;;;;;;;;;;;;20.12;nan;102577.09;4996040;28;19921;-86
2023/04/08 11:07:38;;;;;;;;;;;;;;;20.27;nan;102568.13;5021415;28;19925;-86
2023/04/08 11:10:04;;;;;;;;;;;;;;;20.36;nan;102566.53;5021155;28;19929;-86
2023/04/08 11:12:31;;;;;;;;;;;;;;;20.47;nan;102571.75;5026258;28;20574;-85
2023/04/08 11:14:56;;;;;;;;;;;;;;;20.60;nan;102577.75;5026312;28;19979;-86
2023/04/08 11:17:22;;;;;;;;;;;;;;;20.68;nan;102569.88;5021578;28;19917;-85
2023/04/08 11:19:48;;;;;;;;;;;;;;;20.77;nan;102570.13;5020209;28;19920;-86
2023/04/08 11:22:15;;;;;;;;;;;;;;;20.88;nan;102568.22;5024758;28;20253;-86
2023/04/08 11:24:40;;;;;;;;;;;;;;;21.01;nan;102567.69;5019579;28;19999;-86
2023/04/08 11:27:06;;;;;;;;;;;;;;;21.17;nan;102566.53;5022425;28;19964;-86
2023/04/08 11:29:32;;;;;;;;;;;;;;;21.27;nan;102572.00;5019332;28;20354;-85
2023/04/08 11:31:57;;;;;;;;;;;;;;;21.32;nan;102574.72;5020851;28;19933;-85
2023/04/08 11:34:23;;;;;;;;;;;;;;;21.33;nan;102575.53;5020737;28;20029;-85
2023/04/08 11:36:49;;;;;;;;;;;;;;;21.42;nan;102573.91;5020661;28;19921;-85
2023/04/08 11:39:15;;;;;;;;;;;;;;;21.62;nan;102570.28;5018698;28;19920;-85
2023/04/08 11:41:40;;;;;;;;;;;;;;;21.89;nan;102569.88;5020327;28;19946;-86
2023/04/08 11:44:06;;;;;;;;;;;;;;;22.09;nan;102571.75;5021151;28;19972;-85
2023/04/08 11:46:32;;;;;;;;;;;;;;;22.28;nan;102575.47;5021185;28;20415;-85
2023/04/08 11:48:58;;;;;;;;;;;;;;;22.51;nan;102568.47;5022122;28;20461;-86
2023/04/08 11:51:24;;;;;;;;;;;;;;;22.66;nan;102570.28;5019828;28;20882;-86
2023/04/08 11:53:50;;;;;;;;;;;;;;;22.80;nan;102566.59;5023432;28;20000;-87
2023/04/08 11:56:18;;;;;;;;;;;;;;;22.88;nan;102573.38;5020039;28;20386;-85
2023/04/08 11:58:45;;;;;;;;;;;;;;;22.91;nan;102568.16;5020216;28;19944;-86
2023/04/08 12:01:10;;;;;;;;;;;;;;;22.88;nan;102566.00;5017485;28;20450;-85
2023/04/08 12:03:35;;;;;;;;;;;;;;;22.86;nan;102556.47;5021639;28;19928;-86
2023/04/08 12:06:01;;;;;;;;;;;;;;;22.87;nan;102561.63;5018196;28;19917;-86
2023/04/08 12:08:27;;;;;;;;;;;;;;;22.82;nan;102560.88;5021318;28;19927;-86
2023/04/08 12:10:52;;;;;;;;;;;;;;;22.70;nan;102561.22;4997031;28;20404;-86
2023/04/08 12:13:17;;;;;;;;;;;;;;;22.67;nan;102560.97;5019620;28;19928;-85
2023/04/08 12:15:43;;;;;;;;;;;;;;;22.79;nan;102558.66;5022330;28;19952;-84
2023/04/08 12:18:09;;;;;;;;;;;;;;;22.96;nan;102559.09;5017455;28;20736;-85
2023/04/08 12:20:34;;;;;;;;;;;;;;;23.15;nan;102550.97;5020685;28;19921;-86
2023/04/08 12:22:59;;;;;;;;;;;;;;;23.39;nan;102551.00;5019504;28;19975;-85
2023/04/08 12:25:25;;;;;;;;;;;;;;;23.57;nan;102553.00;5020010;28;19925;-85
2023/04/08 12:27:50;;;;;;;;;;;;;;;23.58;nan;102549.16;5019747;28;20037;-85
2023/04/08 12:30:15;;;;;;;;;;;;;;;23.55;nan;102551.63;5020531;28;20502;-86
2023/04/08 12:32:41;;;;;;;;;;;;;;;23.59;nan;102548.06;5019555;28;19917;-86
2023/04/08 12:35:07;;;;;;;;;;;;;;;23.74;nan;102544.31;5020702;28;19925;-87
2023/04/08 12:37:32;;;;;;;;;;;;;;;23.92;nan;102543.53;5020911;28;19925;-86
2023/04/08 12:39:58;;;;;;;;;;;;;;;24.11;nan;102551.75;5020197;28;19917;-85
2023/04/08 12:42:23;;;;;;;;;;;;;;;24.16;nan;102551.66;5020059;28;20690;-85
2023/04/08 12:44:48;;;;;;;;;;;;;;;24.17;nan;102550.53;5014260;28;19920;-87
2023/04/08 12:47:14;;;;;;;;;;;;;;;24.24;nan;102547.44;5018804;28;19925;-86
2023/04/08 12:49:39;;;;;;;;;;;;;;;24.19;nan;102547.50;5020281;28;20554;-85
2023/04/08 12:52:05;;;;;;;;;;;;;;;24.04;nan;102540.31;5017232;28;19921;-86
2023/04/08 12:54:30;;;;;;;;;;;;;;;24.01;nan;102547.22;5020557;28;19921;-85